Huvudsida
METAR-TAF:

METAR-TAF

Flygplatser :

Ramon Airport

Eilat, Israel

latitud: 29-43-25N, longitud: 35-00-41E, höjd: 88 m

Aktuellt väderrapport

Denna rapport gjordes för 6 timmar och 13 minuter sedan, klockan 16:50 UTC
Vind 9 kt från nordväst
Temperatur 25°C
Fuktighet 26%
Tryck 1013 hPa
Sikt 10 km eller mer
Inga moln under 1 500 m eller inga cumulonimbus

METAR: LLER 021650Z 32009KT CAVOK 25/04 Q1013

Tid: 02:03 (23:03 UTC)

Väderprognos

Denna rapport gjordes för 6 timmar och 1 minuter sedan, klockan 17:02 UTC
Prognos gäller från 02 kl. 18 UTC till 03 kl. 18 UTC
Vind 12 kt från nord
Sikt 10 km eller mer
Inga moln under 1 500 m eller inga cumulonimbus

TAF: LLER 021702Z 0218/0318 36012KT CAVOK TX30/0312Z TN16/0303Z

Aktuella väderrapporter och prognoser från 4000 flygplatser (METAR- och TAF-rapporter).

De tillgängliga stationerna syns som gula och röda prickar på kartan.

För musen över prickarna för att se namnen på stationerna.

Klicka sedan för att få väderrapporter och prognoser.

För att ändra kartan: Klicka på de gröna knapparna med ett svart kors på för att zooma in; den gröna knappen med ett streck på för att zooma ut; eller på de gröna pilarna för angränsande kartor.


METAR-TAF: